createdAt,value
2022-09-17T00:01:43.397Z,3.26
2022-09-17T00:04:12.018Z,3.25
2022-09-17T00:06:40.080Z,3.28
2022-09-17T00:09:09.264Z,3.32
2022-09-17T00:11:41.066Z,3.34
2022-09-17T00:14:13.821Z,3.37
2022-09-17T00:16:46.877Z,3.39
2022-09-17T00:19:23.785Z,3.37
2022-09-17T00:21:52.622Z,3.42
2022-09-17T00:24:21.637Z,3.46
2022-09-17T00:26:50.894Z,3.49
2022-09-17T00:29:18.923Z,3.51
2022-09-17T00:31:47.895Z,3.53
2022-09-17T00:34:15.852Z,3.55
2022-09-17T00:36:43.770Z,3.51
2022-09-17T00:39:13.313Z,3.46
2022-09-17T00:41:41.423Z,3.55
2022-09-17T00:44:50.812Z,3.64
2022-09-17T00:47:27.551Z,3.68
2022-09-17T00:50:20.962Z,3.69
2022-09-17T00:52:59.848Z,3.73
2022-09-17T00:55:36.075Z,3.79
2022-09-17T00:58:06.805Z,3.82
2022-09-17T01:00:35.261Z,3.87
2022-09-17T01:03:04.218Z,3.89
2022-09-17T01:06:01.820Z,3.94
2022-09-17T01:09:06.852Z,3.99
2022-09-17T01:12:02.272Z,3.98
2022-09-17T01:15:13.097Z,3.99
2022-09-17T01:17:58.744Z,4.05
2022-09-17T01:20:41.834Z,4.12
2022-09-17T01:23:31.382Z,4.20
2022-09-17T01:26:03.755Z,4.27
2022-09-17T01:28:46.371Z,4.32
2022-09-17T01:31:42.216Z,4.39
2022-09-17T01:34:21.366Z,4.48
2022-09-17T01:37:05.038Z,4.47
2022-09-17T01:40:01.685Z,4.56
2022-09-17T01:42:36.909Z,4.59
2022-09-17T01:45:20.664Z,4.59
2022-09-17T01:47:59.698Z,4.64
2022-09-17T01:50:34.209Z,4.62
2022-09-17T01:53:04.901Z,4.65
2022-09-17T01:55:36.983Z,4.75
2022-09-17T01:58:28.509Z,4.88
2022-09-17T02:01:03.495Z,4.99
2022-09-17T02:03:31.528Z,5.09
2022-09-17T02:06:28.848Z,5.19
2022-09-17T02:09:22.980Z,5.24
2022-09-17T02:11:59.842Z,5.34
2022-09-17T02:14:46.971Z,5.46
2022-09-17T02:17:35.835Z,5.55
2022-09-17T02:20:04.761Z,5.59
2022-09-17T02:23:03.835Z,5.71
2022-09-17T02:25:47.969Z,5.85
2022-09-17T02:28:28.026Z,5.88
2022-09-17T02:30:55.957Z,6.04
2022-09-17T02:33:25.463Z,6.12
2022-09-17T02:35:53.573Z,6.21
2022-09-17T02:38:30.563Z,6.21
2022-09-17T02:41:37.790Z,6.39
2022-09-17T02:44:22.713Z,6.51
2022-09-17T02:47:25.797Z,6.58
2022-09-17T02:50:11.833Z,6.65
2022-09-17T02:53:01.175Z,6.75
2022-09-17T02:55:43.004Z,6.83
2022-09-17T02:58:35.796Z,6.92
2022-09-17T03:01:15.955Z,7.03
2022-09-17T03:03:46.925Z,7.13
2022-09-17T03:06:15.229Z,7.22
2022-09-17T03:08:43.627Z,7.31
2022-09-17T03:11:16.104Z,7.47
2022-09-17T03:13:44.092Z,7.57
2022-09-17T03:16:12.144Z,7.68
2022-09-17T03:18:42.950Z,7.80
2022-09-17T03:21:13.353Z,7.90
2022-09-17T03:23:41.289Z,8.03
2022-09-17T03:26:10.407Z,8.17
2022-09-17T03:28:38.351Z,8.29
2022-09-17T03:31:06.641Z,8.43
2022-09-17T03:33:34.748Z,8.51
2022-09-17T03:36:02.888Z,8.64
2022-09-17T03:38:30.888Z,8.88
2022-09-17T03:41:09.168Z,9.05
2022-09-17T03:43:37.136Z,9.21
2022-09-17T03:46:05.143Z,9.36
2022-09-17T03:48:36.108Z,9.41
2022-09-17T03:51:04.884Z,9.64
2022-09-17T03:53:34.070Z,9.79
2022-09-17T03:56:04.818Z,9.97
2022-09-17T03:58:33.625Z,10.14
2022-09-17T04:01:01.753Z,10.31
2022-09-17T04:03:31.529Z,10.39
2022-09-17T04:06:00.685Z,10.71
2022-09-17T04:08:28.726Z,10.88
2022-09-17T04:10:56.921Z,11.03
2022-09-17T04:13:25.193Z,11.40
2022-09-17T04:15:53.063Z,11.69
2022-09-17T04:18:21.978Z,12.02
2022-09-17T04:20:49.966Z,12.23
2022-09-17T04:23:18.183Z,12.32
2022-09-17T04:25:46.697Z,12.46
2022-09-17T04:28:14.623Z,12.69
2022-09-17T04:30:43.856Z,12.88
2022-09-17T04:33:12.051Z,13.01
2022-09-17T04:35:40.020Z,13.13
2022-09-17T04:38:07.927Z,13.35
2022-09-17T04:40:38.006Z,13.53
2022-09-17T04:43:06.724Z,13.56
2022-09-17T04:45:34.603Z,13.75
2022-09-17T04:48:03.858Z,13.73
2022-09-17T04:50:32.705Z,13.81
2022-09-17T04:53:00.641Z,13.89
2022-09-17T04:55:30.881Z,13.90
2022-09-17T04:57:58.931Z,14.03
2022-09-17T05:00:27.000Z,14.03
2022-09-17T05:02:58.942Z,13.99
2022-09-17T05:05:26.811Z,13.97
2022-09-17T05:10:41.311Z,14.10
2022-09-17T05:13:09.232Z,14.21
2022-09-17T05:15:37.144Z,14.27
2022-09-17T05:18:05.199Z,14.27
2022-09-17T05:20:33.153Z,14.55
2022-09-17T05:23:01.054Z,14.58
2022-09-17T05:25:29.153Z,14.45
2022-09-17T05:27:57.133Z,14.33
2022-09-17T05:30:25.111Z,14.29
2022-09-17T05:33:03.938Z,14.24
2022-09-17T05:35:32.651Z,14.19
2022-09-17T05:38:02.404Z,14.13
2022-09-17T05:40:31.371Z,14.18
2022-09-17T05:43:04.784Z,14.28
2022-09-17T05:45:35.619Z,14.20
2022-09-17T05:48:04.852Z,14.23
2022-09-17T05:50:33.657Z,14.26
2022-09-17T05:53:08.427Z,14.40
2022-09-17T05:55:36.386Z,14.56
2022-09-17T05:58:19.355Z,14.70
2022-09-17T06:00:49.630Z,14.80
2022-09-17T06:03:20.071Z,14.84
2022-09-17T06:05:56.554Z,14.89
2022-09-17T06:08:30.281Z,14.92
2022-09-17T06:11:04.350Z,15.11
2022-09-17T06:13:32.587Z,15.21
2022-09-17T06:16:01.363Z,15.13
2022-09-17T06:18:31.364Z,15.03
2022-09-17T06:21:05.624Z,14.94
2022-09-17T06:23:37.857Z,14.82
2022-09-17T06:26:07.220Z,14.81
2022-09-17T06:28:41.417Z,14.83
2022-09-17T06:31:12.386Z,14.75
2022-09-17T06:33:40.483Z,14.74
2022-09-17T06:36:14.711Z,14.83
2022-09-17T06:38:43.229Z,14.81
2022-09-17T06:41:11.160Z,14.84
2022-09-17T06:43:39.257Z,14.80
2022-09-17T06:46:09.704Z,14.69
2022-09-17T06:48:38.859Z,14.71
2022-09-17T06:51:11.053Z,14.65
2022-09-17T06:53:40.154Z,14.62
2022-09-17T06:56:09.701Z,14.57
2022-09-17T06:58:38.858Z,14.50
2022-09-17T07:01:07.323Z,14.46
2022-09-17T07:03:35.970Z,14.41
2022-09-17T07:06:04.308Z,14.45
2022-09-17T07:08:35.099Z,14.37
2022-09-17T07:11:04.063Z,14.45
2022-09-17T07:13:33.023Z,14.45
2022-09-17T07:16:02.974Z,14.44
2022-09-17T07:18:30.655Z,14.45
2022-09-17T07:21:06.888Z,14.40
2022-09-17T07:23:36.805Z,14.38
2022-09-17T07:26:05.920Z,14.33
2022-09-17T07:28:34.899Z,14.30
2022-09-17T07:31:06.245Z,14.26
2022-09-17T07:33:36.009Z,14.46
2022-09-17T07:36:07.995Z,14.91
2022-09-17T07:38:36.559Z,15.24
2022-09-17T07:41:14.019Z,15.58
2022-09-17T07:43:44.302Z,15.89
2022-09-17T07:46:18.146Z,16.22
2022-09-17T07:48:47.540Z,16.26
2022-09-17T07:51:20.360Z,16.12
2022-09-17T07:53:51.115Z,16.03
2022-09-17T07:56:19.243Z,15.95
2022-09-17T07:58:47.277Z,15.81
2022-09-17T08:01:17.363Z,15.69
2022-09-17T08:03:53.438Z,15.61
2022-09-17T08:06:26.826Z,15.50
2022-09-17T08:08:59.203Z,15.43
2022-09-17T08:11:54.570Z,15.37
2022-09-17T08:14:17.808Z,15.23
2022-09-17T08:17:04.093Z,15.17
2022-09-17T08:19:33.660Z,15.05
2022-09-17T08:22:01.691Z,14.98
2022-09-17T08:24:30.179Z,14.87
2022-09-17T08:26:58.418Z,14.84
2022-09-17T08:29:26.405Z,14.80
2022-09-17T08:31:54.287Z,14.59
2022-09-17T08:34:22.552Z,14.75
2022-09-17T08:36:50.509Z,14.75
2022-09-17T08:39:18.805Z,14.72
2022-09-17T08:42:11.588Z,14.70
2022-09-17T08:44:47.685Z,14.69
2022-09-17T08:47:40.321Z,14.62
2022-09-17T08:50:18.642Z,14.65
2022-09-17T08:53:15.083Z,14.64
2022-09-17T08:56:19.945Z,14.60
2022-09-17T08:59:01.777Z,14.56
2022-09-17T09:02:00.215Z,14.52
2022-09-17T09:04:32.301Z,14.53
2022-09-17T09:07:14.871Z,14.41
2022-09-17T09:09:53.968Z,14.59
2022-09-17T09:12:31.738Z,14.63
2022-09-17T09:15:03.923Z,14.62
2022-09-17T09:17:44.633Z,14.60
2022-09-17T09:20:23.026Z,14.55
2022-09-17T09:22:53.501Z,14.57
2022-09-17T09:25:32.110Z,14.58
2022-09-17T09:28:12.815Z,14.57
2022-09-17T09:31:13.988Z,14.54
2022-09-17T09:33:47.737Z,14.55
2022-09-17T09:36:24.013Z,14.51
2022-09-17T09:39:10.692Z,14.53
2022-09-17T09:41:45.691Z,14.46
2022-09-17T09:44:16.201Z,14.55
2022-09-17T09:47:13.073Z,14.56
2022-09-17T09:50:19.325Z,14.47
2022-09-17T09:53:19.127Z,14.50
2022-09-17T09:56:12.263Z,14.43
2022-09-17T09:58:44.022Z,14.24
2022-09-17T10:01:21.066Z,14.29
2022-09-17T10:03:53.475Z,14.23
2022-09-17T10:06:22.200Z,14.16
2022-09-17T10:08:56.038Z,14.10
2022-09-17T10:11:27.472Z,14.05
2022-09-17T10:14:26.121Z,14.00
2022-09-17T10:17:25.948Z,13.97
2022-09-17T10:20:11.401Z,13.95
2022-09-17T10:22:43.025Z,13.92
2022-09-17T10:25:33.243Z,13.86
2022-09-17T10:28:06.233Z,13.85
2022-09-17T10:30:35.945Z,13.90
2022-09-17T10:33:25.266Z,13.87
2022-09-17T10:36:07.307Z,13.94
2022-09-17T10:38:43.882Z,13.97
2022-09-17T10:41:22.708Z,13.96
2022-09-17T10:43:51.454Z,14.01
2022-09-17T10:46:28.380Z,14.10
2022-09-17T10:49:13.289Z,14.12
2022-09-17T10:51:42.312Z,14.14
2022-09-17T10:54:38.004Z,14.19
2022-09-17T10:57:10.030Z,14.20
2022-09-17T10:59:52.955Z,14.18
2022-09-17T11:02:47.032Z,14.18
2022-09-17T11:05:20.540Z,14.16
2022-09-17T11:08:23.272Z,14.06
2022-09-17T11:11:11.699Z,14.09
2022-09-17T11:14:06.045Z,14.05
2022-09-17T11:17:04.710Z,13.97
2022-09-17T11:19:51.178Z,13.94
2022-09-17T11:22:31.654Z,13.87
2022-09-17T11:25:09.781Z,13.81
2022-09-17T11:27:47.053Z,13.68
2022-09-17T11:30:24.886Z,13.69
2022-09-17T11:33:31.900Z,13.78
2022-09-17T11:36:10.892Z,13.76
2022-09-17T11:38:49.323Z,13.76
2022-09-17T11:41:42.899Z,13.63
2022-09-17T11:44:44.321Z,13.62
2022-09-17T11:47:47.445Z,13.58
2022-09-17T11:50:47.713Z,13.53
2022-09-17T11:53:52.684Z,13.49
2022-09-17T11:56:49.989Z,13.41
2022-09-17T11:59:40.671Z,13.26
2022-09-17T12:02:26.854Z,13.16
2022-09-17T12:05:26.759Z,13.00
2022-09-17T12:08:08.499Z,12.94
2022-09-17T12:10:46.446Z,12.81
2022-09-17T12:13:23.748Z,12.77
2022-09-17T12:16:18.870Z,12.68
2022-09-17T12:18:56.588Z,12.59
2022-09-17T12:21:31.326Z,12.49
2022-09-17T12:24:29.335Z,12.38
2022-09-17T12:27:35.838Z,12.29
2022-09-17T12:30:10.631Z,12.15
2022-09-17T12:33:08.572Z,12.08
2022-09-17T12:36:13.979Z,11.89
2022-09-17T12:39:04.351Z,11.82
2022-09-17T12:41:55.915Z,11.79
2022-09-17T12:44:26.936Z,11.71
2022-09-17T12:47:16.558Z,11.61
2022-09-17T12:50:02.589Z,11.51
2022-09-17T12:52:37.432Z,11.42
2022-09-17T12:55:25.628Z,11.26
2022-09-17T12:58:02.210Z,11.17
2022-09-17T13:00:34.249Z,11.08
2022-09-17T13:03:53.421Z,10.94
2022-09-17T13:06:38.704Z,10.80
2022-09-17T13:09:13.970Z,10.71
2022-09-17T13:11:58.292Z,10.60
2022-09-17T13:14:53.278Z,10.43
2022-09-17T13:18:12.331Z,10.42
2022-09-17T13:20:51.329Z,10.34
2022-09-17T13:23:34.888Z,10.24
2022-09-17T13:26:07.688Z,10.08
2022-09-17T13:28:47.455Z,9.93
2022-09-17T13:31:45.205Z,9.92
2022-09-17T13:34:19.692Z,9.86
2022-09-17T13:36:53.992Z,9.72
2022-09-17T13:39:41.105Z,9.55
2022-09-17T13:42:17.255Z,9.18
2022-09-17T13:44:54.543Z,9.28
2022-09-17T13:47:30.290Z,9.22
2022-09-17T13:50:43.905Z,9.19
2022-09-17T13:53:15.205Z,9.13
2022-09-17T13:55:44.976Z,9.08
2022-09-17T13:58:22.753Z,8.96
2022-09-17T14:00:52.703Z,8.92
2022-09-17T14:03:39.347Z,8.90
2022-09-17T14:06:08.653Z,8.88
2022-09-17T14:08:46.114Z,8.62
2022-09-17T14:11:27.388Z,8.67
2022-09-17T14:14:05.004Z,8.57
2022-09-17T14:16:39.384Z,8.50
2022-09-17T14:19:16.782Z,8.41
2022-09-17T14:22:00.335Z,8.34
2022-09-17T14:24:50.940Z,8.31
2022-09-17T14:27:42.074Z,8.27
2022-09-17T14:30:32.046Z,8.22
2022-09-17T14:33:23.577Z,8.16
2022-09-17T14:35:59.005Z,8.08
2022-09-17T14:38:54.103Z,8.02
2022-09-17T14:41:33.991Z,7.96
2022-09-17T14:44:07.923Z,7.93
2022-09-17T14:46:49.813Z,7.83
2022-09-17T14:49:28.223Z,7.74
2022-09-17T14:52:02.648Z,7.57
2022-09-17T14:54:36.248Z,7.59
2022-09-17T14:57:22.954Z,7.51
2022-09-17T14:59:55.361Z,7.33
2022-09-17T15:02:28.880Z,7.34
2022-09-17T15:04:57.901Z,7.28
2022-09-17T15:07:27.133Z,7.19
2022-09-17T15:09:59.427Z,7.13
2022-09-17T15:12:31.067Z,6.96
2022-09-17T15:14:59.509Z,6.99
2022-09-17T15:17:27.716Z,6.93
2022-09-17T15:19:59.371Z,6.85
2022-09-17T15:22:34.466Z,6.77
2022-09-17T15:25:12.212Z,6.64
2022-09-17T15:27:46.340Z,6.62
2022-09-17T15:30:21.822Z,6.58
2022-09-17T15:32:58.932Z,6.46
2022-09-17T15:35:34.673Z,6.43
2022-09-17T15:38:22.701Z,6.37
2022-09-17T15:40:52.612Z,6.40
2022-09-17T15:43:35.054Z,6.34
2022-09-17T15:46:42.342Z,6.33
2022-09-17T15:49:38.928Z,6.35
2022-09-17T15:52:44.857Z,6.31
2022-09-17T15:56:14.070Z,6.29
2022-09-17T15:58:42.289Z,6.27
2022-09-17T16:01:19.275Z,6.23
2022-09-17T16:03:48.938Z,6.19
2022-09-17T16:06:19.850Z,6.14
2022-09-17T16:08:50.982Z,6.03
2022-09-17T16:11:21.525Z,6.01
2022-09-17T16:13:57.474Z,5.82
2022-09-17T16:16:31.972Z,5.88
2022-09-17T16:19:00.078Z,5.82
2022-09-17T16:21:28.440Z,5.79
2022-09-17T16:23:58.945Z,5.71
2022-09-17T16:26:31.726Z,5.67
2022-09-17T16:29:06.083Z,5.62
2022-09-17T16:31:35.077Z,5.58
2022-09-17T16:34:03.089Z,5.55
2022-09-17T16:36:34.132Z,5.51
2022-09-17T16:39:02.034Z,5.47
2022-09-17T16:41:48.375Z,5.31
2022-09-17T16:44:16.301Z,5.35
2022-09-17T16:46:44.168Z,5.24
2022-09-17T16:49:13.056Z,5.26
2022-09-17T16:51:41.024Z,5.22
2022-09-17T16:54:09.029Z,5.23
2022-09-17T16:56:37.240Z,5.22
2022-09-17T16:59:05.934Z,5.08
2022-09-17T17:01:33.914Z,5.17
2022-09-17T17:04:02.925Z,5.13
2022-09-17T17:06:32.913Z,4.94
2022-09-17T17:09:01.722Z,5.12
2022-09-17T17:11:30.045Z,5.10
2022-09-17T17:13:58.125Z,5.00
2022-09-17T17:16:26.477Z,5.03
2022-09-17T17:18:56.044Z,4.95
2022-09-17T17:21:24.077Z,4.79
2022-09-17T17:23:51.961Z,4.84
2022-09-17T17:26:21.635Z,4.77
2022-09-17T17:28:49.755Z,4.77
2022-09-17T17:31:18.012Z,4.68
2022-09-17T17:33:46.978Z,4.64
2022-09-17T17:36:14.948Z,4.63
2022-09-17T17:38:43.875Z,4.58
2022-09-17T17:41:14.894Z,4.44
2022-09-17T17:43:43.001Z,4.36
2022-09-17T17:46:12.968Z,4.44
2022-09-17T17:48:41.958Z,4.36
2022-09-17T17:51:11.078Z,4.39
2022-09-17T17:53:43.394Z,4.37
2022-09-17T17:56:13.391Z,4.30
2022-09-17T17:58:41.961Z,4.30
2022-09-17T18:01:15.933Z,4.27
2022-09-17T18:03:44.334Z,4.21
2022-09-17T18:06:12.604Z,4.29
2022-09-17T18:08:42.236Z,4.26
2022-09-17T18:11:12.377Z,4.20
2022-09-17T18:13:42.277Z,4.13
2022-09-17T18:16:20.020Z,4.05
2022-09-17T18:18:48.982Z,3.95
2022-09-17T18:21:22.895Z,3.91
2022-09-17T18:23:51.956Z,3.95
2022-09-17T18:26:28.589Z,3.89
2022-09-17T18:28:57.230Z,3.88
2022-09-17T18:31:31.908Z,3.81
2022-09-17T18:34:02.994Z,3.74
2022-09-17T18:36:34.073Z,3.70
2022-09-17T18:39:33.177Z,3.67
2022-09-17T18:41:54.394Z,3.67
2022-09-17T18:44:23.047Z,3.62
2022-09-17T18:46:51.963Z,3.60
2022-09-17T18:49:20.171Z,3.57
2022-09-17T18:51:48.258Z,3.57
2022-09-17T18:54:16.185Z,3.45
2022-09-17T18:56:44.182Z,3.49
2022-09-17T18:59:12.346Z,3.51
2022-09-17T19:01:40.336Z,3.49
2022-09-17T19:04:09.153Z,3.44
2022-09-17T19:06:37.110Z,3.37
2022-09-17T19:09:06.362Z,3.35
2022-09-17T19:11:37.106Z,3.37
2022-09-17T19:14:05.448Z,3.30
2022-09-17T19:16:33.442Z,3.31
2022-09-17T19:19:01.743Z,3.29
2022-09-17T19:21:29.893Z,3.24
2022-09-17T19:23:57.940Z,3.21
2022-09-17T19:26:29.952Z,3.08
2022-09-17T19:29:01.112Z,3.16
2022-09-17T19:31:29.513Z,3.14
2022-09-17T19:33:59.491Z,3.06
2022-09-17T19:36:27.538Z,2.96
2022-09-17T19:38:55.615Z,3.03
2022-09-17T19:41:25.734Z,2.98
2022-09-17T19:43:55.565Z,2.95
2022-09-17T19:46:24.785Z,2.90
2022-09-17T19:48:58.111Z,2.88
2022-09-17T19:51:29.536Z,2.71
2022-09-17T19:53:57.814Z,2.84
2022-09-17T19:56:29.974Z,2.83
2022-09-17T19:58:57.910Z,2.71
2022-09-17T20:01:25.912Z,2.76
2022-09-17T20:03:56.739Z,2.67
2022-09-17T20:06:24.598Z,2.73
2022-09-17T20:08:55.025Z,2.71
2022-09-17T20:11:25.369Z,2.68
2022-09-17T20:14:08.122Z,2.37
2022-09-17T20:16:39.203Z,2.58
2022-09-17T20:19:08.554Z,2.42
2022-09-17T20:21:36.656Z,2.47
2022-09-17T20:24:07.513Z,2.48
2022-09-17T20:26:36.195Z,2.46
2022-09-17T20:29:04.619Z,2.45
2022-09-17T20:31:51.813Z,2.41
2022-09-17T20:34:19.745Z,2.41
2022-09-17T20:36:47.690Z,2.42
2022-09-17T20:39:22.866Z,2.40
2022-09-17T20:41:51.391Z,2.27
2022-09-17T20:44:19.473Z,2.20
2022-09-17T20:46:49.363Z,2.31
2022-09-17T20:49:17.303Z,2.18
2022-09-17T20:51:45.182Z,2.13
2022-09-17T20:54:13.476Z,2.16
2022-09-17T20:56:41.625Z,2.22
2022-09-17T20:59:21.028Z,2.16
2022-09-17T21:01:50.444Z,2.20
2022-09-17T21:04:20.597Z,2.12
2022-09-17T21:06:53.511Z,2.10
2022-09-17T21:09:21.636Z,2.16
2022-09-17T21:11:50.002Z,2.13
2022-09-17T21:14:19.058Z,1.95
2022-09-17T21:16:47.369Z,2.08
2022-09-17T21:19:16.884Z,2.07
2022-09-17T21:21:45.466Z,2.02
2022-09-17T21:24:13.452Z,2.04
2022-09-17T21:26:41.557Z,1.93
2022-09-17T21:29:09.752Z,1.85
2022-09-17T21:31:38.848Z,1.81
2022-09-17T21:34:10.545Z,1.93
2022-09-17T21:36:41.007Z,1.93
2022-09-17T21:39:16.305Z,1.94
2022-09-17T21:41:45.379Z,1.82
2022-09-17T21:44:14.851Z,1.79
2022-09-17T21:46:43.691Z,1.77
2022-09-17T21:49:13.743Z,1.82
2022-09-17T21:51:43.343Z,1.76
2022-09-17T21:54:14.211Z,1.70
2022-09-17T21:56:42.577Z,1.72
2022-09-17T21:59:14.785Z,1.75
2022-09-17T22:01:47.668Z,1.69
2022-09-17T22:04:19.280Z,1.82
2022-09-17T22:06:48.655Z,1.80
2022-09-17T22:09:20.529Z,1.68
2022-09-17T22:11:49.377Z,1.66
2022-09-17T22:14:23.090Z,1.65
2022-09-17T22:16:54.121Z,1.70
2022-09-17T22:19:27.985Z,1.67
2022-09-17T22:21:56.848Z,1.67
2022-09-17T22:24:25.934Z,1.63
2022-09-17T22:26:57.807Z,1.67
2022-09-17T22:29:28.883Z,1.60
2022-09-17T22:31:58.049Z,1.65
2022-09-17T22:34:27.221Z,1.64
2022-09-17T22:36:55.103Z,1.61
2022-09-17T22:39:23.436Z,1.58
2022-09-17T22:41:51.560Z,1.60
2022-09-17T22:44:21.216Z,1.46
2022-09-17T22:46:51.819Z,1.60
2022-09-17T22:49:21.052Z,1.56
2022-09-17T22:51:49.100Z,1.55
2022-09-17T22:54:18.690Z,1.50
2022-09-17T22:56:48.267Z,1.48
2022-09-17T22:59:16.878Z,1.51
2022-09-17T23:01:45.011Z,1.43
2022-09-17T23:04:12.936Z,1.52
2022-09-17T23:06:44.894Z,1.40
2022-09-17T23:09:15.559Z,1.45
2022-09-17T23:11:43.560Z,1.45
2022-09-17T23:14:14.156Z,1.40
2022-09-17T23:16:48.163Z,1.42
2022-09-17T23:19:17.822Z,1.39
2022-09-17T23:21:46.355Z,1.36
2022-09-17T23:24:21.772Z,1.28
2022-09-17T23:26:50.291Z,1.32
2022-09-17T23:29:18.512Z,1.30
2022-09-17T23:31:47.456Z,1.29
2022-09-17T23:34:15.450Z,1.28
2022-09-17T23:36:43.422Z,1.16
2022-09-17T23:39:13.255Z,1.29
2022-09-17T23:41:59.975Z,1.30
2022-09-17T23:44:29.138Z,1.06
2022-09-17T23:46:57.024Z,1.17
2022-09-17T23:49:25.032Z,1.25
2022-09-17T23:51:54.006Z,1.20
2022-09-17T23:54:21.999Z,1.22
2022-09-17T23:56:49.880Z,1.21
2022-09-17T23:59:17.928Z,1.22
